sensor_id;sensor_type;location;lat;lon;timestamp;P1;durP1;ratioP1;P2;durP2;ratioP2
77597;SDS011;66756;42.774;23.354;2023-05-31T00:02:15;3.40;;;2.10;;
77597;SDS011;66756;42.774;23.354;2023-05-31T00:04:41;4.70;;;2.08;;
77597;SDS011;66756;42.774;23.354;2023-05-31T00:07:07;4.53;;;1.92;;
77597;SDS011;66756;42.774;23.354;2023-05-31T00:09:33;4.03;;;1.90;;
77597;SDS011;66756;42.774;23.354;2023-05-31T00:12:00;3.75;;;1.95;;
77597;SDS011;66756;42.774;23.354;2023-05-31T00:14:26;3.78;;;2.10;;
77597;SDS011;66756;42.774;23.354;2023-05-31T00:16:52;6.22;;;2.40;;
77597;SDS011;66756;42.774;23.354;2023-05-31T00:19:18;3.92;;;2.13;;
77597;SDS011;66756;42.774;23.354;2023-05-31T00:21:44;3.28;;;1.92;;
77597;SDS011;66756;42.774;23.354;2023-05-31T00:24:11;4.55;;;1.80;;
77597;SDS011;66756;42.774;23.354;2023-05-31T00:26:38;4.85;;;2.30;;
77597;SDS011;66756;42.774;23.354;2023-05-31T00:29:04;5.68;;;3.45;;
77597;SDS011;66756;42.774;23.354;2023-05-31T00:31:30;10.10;;;7.30;;
77597;SDS011;66756;42.774;23.354;2023-05-31T00:33:56;9.88;;;6.10;;
77597;SDS011;66756;42.774;23.354;2023-05-31T00:36:22;7.18;;;4.20;;
77597;SDS011;66756;42.774;23.354;2023-05-31T00:38:49;8.05;;;4.10;;
77597;SDS011;66756;42.774;23.354;2023-05-31T00:41:15;5.25;;;3.00;;
77597;SDS011;66756;42.774;23.354;2023-05-31T00:43:42;4.65;;;2.53;;
77597;SDS011;66756;42.774;23.354;2023-05-31T00:46:13;6.20;;;3.40;;
77597;SDS011;66756;42.774;23.354;2023-05-31T00:48:43;5.90;;;2.92;;
77597;SDS011;66756;42.774;23.354;2023-05-31T00:51:10;4.70;;;2.80;;
77597;SDS011;66756;42.774;23.354;2023-05-31T00:53:37;5.53;;;2.72;;
77597;SDS011;66756;42.774;23.354;2023-05-31T00:56:03;5.40;;;2.90;;
77597;SDS011;66756;42.774;23.354;2023-05-31T00:58:29;5.53;;;2.55;;
77597;SDS011;66756;42.774;23.354;2023-05-31T01:00:59;8.18;;;2.90;;
77597;SDS011;66756;42.774;23.354;2023-05-31T01:03:25;6.45;;;2.65;;
77597;SDS011;66756;42.774;23.354;2023-05-31T01:05:52;5.28;;;2.35;;
77597;SDS011;66756;42.774;23.354;2023-05-31T01:08:18;4.35;;;3.15;;
77597;SDS011;66756;42.774;23.354;2023-05-31T01:10:44;4.53;;;2.50;;
77597;SDS011;66756;42.774;23.354;2023-05-31T01:13:24;5.03;;;2.92;;
77597;SDS011;66756;42.774;23.354;2023-05-31T01:15:57;5.07;;;2.70;;
77597;SDS011;66756;42.774;23.354;2023-05-31T01:18:26;4.07;;;2.55;;
77597;SDS011;66756;42.774;23.354;2023-05-31T01:20:56;5.38;;;2.35;;
77597;SDS011;66756;42.774;23.354;2023-05-31T01:23:31;3.88;;;2.63;;
77597;SDS011;66756;42.774;23.354;2023-05-31T01:28:28;5.03;;;2.72;;
77597;SDS011;66756;42.774;23.354;2023-05-31T01:30:59;7.30;;;2.83;;
77597;SDS011;66756;42.774;23.354;2023-05-31T01:33:26;5.38;;;2.47;;
77597;SDS011;66756;42.774;23.354;2023-05-31T01:35:52;3.55;;;2.45;;
77597;SDS011;66756;42.774;23.354;2023-05-31T01:38:18;3.65;;;2.33;;
77597;SDS011;66756;42.774;23.354;2023-05-31T01:40:44;5.05;;;3.08;;
77597;SDS011;66756;42.774;23.354;2023-05-31T01:43:11;4.93;;;2.33;;
77597;SDS011;66756;42.774;23.354;2023-05-31T01:45:37;3.80;;;2.38;;
77597;SDS011;66756;42.774;23.354;2023-05-31T01:48:04;5.47;;;2.60;;
77597;SDS011;66756;42.774;23.354;2023-05-31T01:50:32;4.78;;;3.30;;
77597;SDS011;66756;42.774;23.354;2023-05-31T01:53:00;3.63;;;2.35;;
77597;SDS011;66756;42.774;23.354;2023-05-31T01:55:26;5.28;;;2.88;;
77597;SDS011;66756;42.774;23.354;2023-05-31T01:57:52;4.97;;;2.85;;
77597;SDS011;66756;42.774;23.354;2023-05-31T02:00:19;4.13;;;2.40;;
77597;SDS011;66756;42.774;23.354;2023-05-31T02:02:45;3.83;;;2.45;;
77597;SDS011;66756;42.774;23.354;2023-05-31T02:05:12;5.57;;;2.75;;
77597;SDS011;66756;42.774;23.354;2023-05-31T02:07:38;4.18;;;2.30;;
77597;SDS011;66756;42.774;23.354;2023-05-31T02:10:05;5.05;;;2.67;;
77597;SDS011;66756;42.774;23.354;2023-05-31T02:12:32;7.32;;;3.03;;
77597;SDS011;66756;42.774;23.354;2023-05-31T02:14:58;4.57;;;2.25;;
77597;SDS011;66756;42.774;23.354;2023-05-31T02:17:24;6.85;;;2.33;;
77597;SDS011;66756;42.774;23.354;2023-05-31T02:19:50;5.00;;;2.15;;
77597;SDS011;66756;42.774;23.354;2023-05-31T02:22:17;3.95;;;1.65;;
77597;SDS011;66756;42.774;23.354;2023-05-31T02:24:43;4.50;;;2.63;;
77597;SDS011;66756;42.774;23.354;2023-05-31T02:27:09;5.45;;;2.45;;
77597;SDS011;66756;42.774;23.354;2023-05-31T02:29:35;3.42;;;2.38;;
77597;SDS011;66756;42.774;23.354;2023-05-31T02:32:01;4.60;;;1.98;;
77597;SDS011;66756;42.774;23.354;2023-05-31T02:34:27;4.53;;;2.30;;
77597;SDS011;66756;42.774;23.354;2023-05-31T02:36:53;4.20;;;1.77;;
77597;SDS011;66756;42.774;23.354;2023-05-31T02:39:19;6.90;;;2.63;;
77597;SDS011;66756;42.774;23.354;2023-05-31T02:41:45;5.00;;;1.90;;
77597;SDS011;66756;42.774;23.354;2023-05-31T02:44:11;6.03;;;2.38;;
77597;SDS011;66756;42.774;23.354;2023-05-31T02:46:38;4.30;;;2.70;;
77597;SDS011;66756;42.774;23.354;2023-05-31T02:49:04;4.63;;;2.13;;
77597;SDS011;66756;42.774;23.354;2023-05-31T02:51:33;3.95;;;2.58;;
77597;SDS011;66756;42.774;23.354;2023-05-31T02:53:59;5.15;;;2.25;;
77597;SDS011;66756;42.774;23.354;2023-05-31T02:56:25;4.43;;;2.28;;
77597;SDS011;66756;42.774;23.354;2023-05-31T02:58:52;4.05;;;2.25;;
77597;SDS011;66756;42.774;23.354;2023-05-31T03:01:18;5.85;;;2.60;;
77597;SDS011;66756;42.774;23.354;2023-05-31T03:03:44;4.63;;;3.13;;
77597;SDS011;66756;42.774;23.354;2023-05-31T03:06:10;8.70;;;2.42;;
77597;SDS011;66756;42.774;23.354;2023-05-31T03:08:37;3.97;;;2.38;;
77597;SDS011;66756;42.774;23.354;2023-05-31T03:11:03;4.47;;;2.50;;
77597;SDS011;66756;42.774;23.354;2023-05-31T03:13:29;4.28;;;2.38;;
77597;SDS011;66756;42.774;23.354;2023-05-31T03:15:55;4.97;;;2.85;;
77597;SDS011;66756;42.774;23.354;2023-05-31T03:18:21;5.28;;;2.80;;
77597;SDS011;66756;42.774;23.354;2023-05-31T03:20:47;3.85;;;2.30;;
77597;SDS011;66756;42.774;23.354;2023-05-31T03:23:13;3.95;;;2.20;;
77597;SDS011;66756;42.774;23.354;2023-05-31T03:25:39;4.80;;;2.47;;
77597;SDS011;66756;42.774;23.354;2023-05-31T03:28:05;4.18;;;2.88;;
77597;SDS011;66756;42.774;23.354;2023-05-31T03:30:31;4.72;;;2.58;;
77597;SDS011;66756;42.774;23.354;2023-05-31T03:32:57;4.28;;;2.45;;
77597;SDS011;66756;42.774;23.354;2023-05-31T03:35:23;3.80;;;2.10;;
77597;SDS011;66756;42.774;23.354;2023-05-31T03:37:49;4.18;;;2.47;;
77597;SDS011;66756;42.774;23.354;2023-05-31T03:40:15;5.65;;;2.80;;
77597;SDS011;66756;42.774;23.354;2023-05-31T03:42:41;5.22;;;2.97;;
77597;SDS011;66756;42.774;23.354;2023-05-31T03:45:07;6.75;;;2.70;;
77597;SDS011;66756;42.774;23.354;2023-05-31T03:47:33;5.55;;;2.85;;
77597;SDS011;66756;42.774;23.354;2023-05-31T03:50:00;5.32;;;3.05;;
77597;SDS011;66756;42.774;23.354;2023-05-31T03:52:26;5.55;;;2.80;;
77597;SDS011;66756;42.774;23.354;2023-05-31T03:54:53;4.35;;;2.88;;
77597;SDS011;66756;42.774;23.354;2023-05-31T03:57:19;4.90;;;2.85;;
77597;SDS011;66756;42.774;23.354;2023-05-31T03:59:45;3.88;;;2.50;;
77597;SDS011;66756;42.774;23.354;2023-05-31T04:02:11;6.05;;;3.25;;
77597;SDS011;66756;42.774;23.354;2023-05-31T04:04:37;5.65;;;3.38;;
77597;SDS011;66756;42.774;23.354;2023-05-31T04:07:03;5.25;;;3.08;;
77597;SDS011;66756;42.774;23.354;2023-05-31T04:09:30;5.38;;;3.28;;
77597;SDS011;66756;42.774;23.354;2023-05-31T04:11:56;4.60;;;2.92;;
77597;SDS011;66756;42.774;23.354;2023-05-31T04:14:22;6.00;;;3.30;;
77597;SDS011;66756;42.774;23.354;2023-05-31T04:16:48;4.82;;;2.80;;
77597;SDS011;66756;42.774;23.354;2023-05-31T04:19:14;4.82;;;3.10;;
77597;SDS011;66756;42.774;23.354;2023-05-31T04:21:40;7.78;;;2.97;;
77597;SDS011;66756;42.774;23.354;2023-05-31T04:24:06;6.60;;;3.53;;
77597;SDS011;66756;42.774;23.354;2023-05-31T04:26:32;5.57;;;3.25;;
77597;SDS011;66756;42.774;23.354;2023-05-31T04:28:59;5.82;;;3.85;;
77597;SDS011;66756;42.774;23.354;2023-05-31T04:31:25;10.15;;;3.35;;
77597;SDS011;66756;42.774;23.354;2023-05-31T04:33:53;5.65;;;3.30;;
77597;SDS011;66756;42.774;23.354;2023-05-31T04:36:21;6.10;;;3.70;;
77597;SDS011;66756;42.774;23.354;2023-05-31T04:38:49;4.63;;;3.15;;
77597;SDS011;66756;42.774;23.354;2023-05-31T04:41:16;6.63;;;3.75;;
77597;SDS011;66756;42.774;23.354;2023-05-31T04:43:42;5.97;;;4.25;;
77597;SDS011;66756;42.774;23.354;2023-05-31T04:46:08;6.10;;;3.72;;
77597;SDS011;66756;42.774;23.354;2023-05-31T04:48:38;5.40;;;3.47;;
77597;SDS011;66756;42.774;23.354;2023-05-31T04:51:05;6.20;;;4.15;;
77597;SDS011;66756;42.774;23.354;2023-05-31T04:53:31;6.95;;;3.60;;
77597;SDS011;66756;42.774;23.354;2023-05-31T04:55:57;5.10;;;3.70;;
77597;SDS011;66756;42.774;23.354;2023-05-31T04:58:29;8.15;;;3.58;;
77597;SDS011;66756;42.774;23.354;2023-05-31T05:00:56;4.97;;;3.58;;
77597;SDS011;66756;42.774;23.354;2023-05-31T05:03:22;6.22;;;3.92;;
77597;SDS011;66756;42.774;23.354;2023-05-31T05:05:49;6.30;;;3.85;;
77597;SDS011;66756;42.774;23.354;2023-05-31T05:08:15;6.50;;;3.97;;
77597;SDS011;66756;42.774;23.354;2023-05-31T05:10:41;5.55;;;3.55;;
77597;SDS011;66756;42.774;23.354;2023-05-31T05:13:07;6.10;;;4.07;;
77597;SDS011;66756;42.774;23.354;2023-05-31T05:15:33;4.75;;;4.03;;
77597;SDS011;66756;42.774;23.354;2023-05-31T05:17:59;9.00;;;4.32;;
77597;SDS011;66756;42.774;23.354;2023-05-31T05:20:26;6.90;;;4.13;;
77597;SDS011;66756;42.774;23.354;2023-05-31T05:22:52;4.80;;;3.47;;
77597;SDS011;66756;42.774;23.354;2023-05-31T05:25:18;5.15;;;3.70;;
77597;SDS011;66756;42.774;23.354;2023-05-31T05:27:46;5.68;;;3.35;;
77597;SDS011;66756;42.774;23.354;2023-05-31T05:30:12;5.47;;;3.45;;
77597;SDS011;66756;42.774;23.354;2023-05-31T05:32:38;5.20;;;3.83;;
77597;SDS011;66756;42.774;23.354;2023-05-31T05:35:04;5.40;;;3.72;;
77597;SDS011;66756;42.774;23.354;2023-05-31T05:37:31;6.68;;;3.95;;
77597;SDS011;66756;42.774;23.354;2023-05-31T05:39:58;4.82;;;3.60;;
77597;SDS011;66756;42.774;23.354;2023-05-31T05:42:25;6.65;;;4.25;;
77597;SDS011;66756;42.774;23.354;2023-05-31T05:44:52;5.70;;;3.88;;
77597;SDS011;66756;42.774;23.354;2023-05-31T05:47:18;5.40;;;4.32;;
77597;SDS011;66756;42.774;23.354;2023-05-31T05:49:44;9.48;;;4.43;;
77597;SDS011;66756;42.774;23.354;2023-05-31T05:52:10;7.85;;;4.30;;
77597;SDS011;66756;42.774;23.354;2023-05-31T05:54:36;5.53;;;3.85;;
77597;SDS011;66756;42.774;23.354;2023-05-31T05:57:02;8.10;;;4.13;;
77597;SDS011;66756;42.774;23.354;2023-05-31T05:59:28;6.80;;;4.20;;
77597;SDS011;66756;42.774;23.354;2023-05-31T06:01:54;6.75;;;4.13;;
77597;SDS011;66756;42.774;23.354;2023-05-31T06:04:20;7.35;;;4.50;;
77597;SDS011;66756;42.774;23.354;2023-05-31T06:06:46;6.43;;;4.43;;
77597;SDS011;66756;42.774;23.354;2023-05-31T06:09:12;7.03;;;5.38;;
77597;SDS011;66756;42.774;23.354;2023-05-31T06:11:38;7.60;;;4.45;;
77597;SDS011;66756;42.774;23.354;2023-05-31T06:14:05;5.40;;;4.28;;
77597;SDS011;66756;42.774;23.354;2023-05-31T06:16:31;7.30;;;4.55;;
77597;SDS011;66756;42.774;23.354;2023-05-31T06:18:57;7.38;;;4.43;;
77597;SDS011;66756;42.774;23.354;2023-05-31T06:21:23;5.47;;;3.92;;
77597;SDS011;66756;42.774;23.354;2023-05-31T06:23:49;8.55;;;5.03;;
77597;SDS011;66756;42.774;23.354;2023-05-31T06:26:15;7.28;;;5.35;;
77597;SDS011;66756;42.774;23.354;2023-05-31T06:28:42;7.10;;;4.60;;
77597;SDS011;66756;42.774;23.354;2023-05-31T06:31:08;7.13;;;5.18;;
77597;SDS011;66756;42.774;23.354;2023-05-31T06:33:34;7.82;;;5.75;;
77597;SDS011;66756;42.774;23.354;2023-05-31T06:36:00;7.57;;;5.15;;
77597;SDS011;66756;42.774;23.354;2023-05-31T06:38:27;7.80;;;5.43;;
77597;SDS011;66756;42.774;23.354;2023-05-31T06:40:53;7.80;;;5.68;;
77597;SDS011;66756;42.774;23.354;2023-05-31T06:43:19;8.77;;;5.75;;
77597;SDS011;66756;42.774;23.354;2023-05-31T06:45:45;8.07;;;5.00;;
77597;SDS011;66756;42.774;23.354;2023-05-31T06:48:11;8.00;;;5.03;;
77597;SDS011;66756;42.774;23.354;2023-05-31T06:50:37;8.85;;;5.90;;
77597;SDS011;66756;42.774;23.354;2023-05-31T06:53:03;7.63;;;5.95;;
77597;SDS011;66756;42.774;23.354;2023-05-31T06:55:29;7.15;;;5.75;;
77597;SDS011;66756;42.774;23.354;2023-05-31T06:57:55;9.75;;;6.55;;
77597;SDS011;66756;42.774;23.354;2023-05-31T07:00:21;8.05;;;6.35;;
77597;SDS011;66756;42.774;23.354;2023-05-31T07:02:47;7.35;;;5.72;;
77597;SDS011;66756;42.774;23.354;2023-05-31T07:05:13;8.35;;;5.43;;
77597;SDS011;66756;42.774;23.354;2023-05-31T07:07:39;7.47;;;5.72;;
77597;SDS011;66756;42.774;23.354;2023-05-31T07:10:06;9.25;;;6.18;;
77597;SDS011;66756;42.774;23.354;2023-05-31T07:12:32;7.97;;;6.00;;
77597;SDS011;66756;42.774;23.354;2023-05-31T07:14:58;8.00;;;6.18;;
77597;SDS011;66756;42.774;23.354;2023-05-31T07:17:24;8.43;;;5.75;;
77597;SDS011;66756;42.774;23.354;2023-05-31T07:19:50;9.13;;;5.85;;
77597;SDS011;66756;42.774;23.354;2023-05-31T07:22:16;7.50;;;5.07;;
77597;SDS011;66756;42.774;23.354;2023-05-31T07:24:43;8.52;;;5.15;;
77597;SDS011;66756;42.774;23.354;2023-05-31T07:27:09;8.20;;;6.65;;
77597;SDS011;66756;42.774;23.354;2023-05-31T07:29:36;6.55;;;5.07;;
77597;SDS011;66756;42.774;23.354;2023-05-31T07:32:02;7.68;;;5.07;;
77597;SDS011;66756;42.774;23.354;2023-05-31T07:34:28;5.97;;;4.75;;
77597;SDS011;66756;42.774;23.354;2023-05-31T07:36:54;9.60;;;6.28;;
77597;SDS011;66756;42.774;23.354;2023-05-31T07:39:20;8.68;;;5.95;;
77597;SDS011;66756;42.774;23.354;2023-05-31T07:41:47;7.30;;;5.72;;
77597;SDS011;66756;42.774;23.354;2023-05-31T07:44:13;6.18;;;5.55;;
77597;SDS011;66756;42.774;23.354;2023-05-31T07:46:41;7.70;;;5.07;;
77597;SDS011;66756;42.774;23.354;2023-05-31T07:49:07;5.15;;;4.20;;
77597;SDS011;66756;42.774;23.354;2023-05-31T07:51:33;8.45;;;5.68;;
77597;SDS011;66756;42.774;23.354;2023-05-31T07:54:00;7.72;;;4.53;;
77597;SDS011;66756;42.774;23.354;2023-05-31T07:56:27;8.13;;;5.32;;
77597;SDS011;66756;42.774;23.354;2023-05-31T07:58:53;8.48;;;5.07;;
77597;SDS011;66756;42.774;23.354;2023-05-31T08:01:19;7.10;;;5.28;;
77597;SDS011;66756;42.774;23.354;2023-05-31T08:03:45;9.77;;;5.85;;
77597;SDS011;66756;42.774;23.354;2023-05-31T08:06:12;11.55;;;6.05;;
77597;SDS011;66756;42.774;23.354;2023-05-31T08:08:38;7.88;;;5.82;;
77597;SDS011;66756;42.774;23.354;2023-05-31T08:11:06;9.30;;;5.88;;
77597;SDS011;66756;42.774;23.354;2023-05-31T08:13:32;9.10;;;5.97;;
77597;SDS011;66756;42.774;23.354;2023-05-31T08:15:58;7.57;;;4.70;;
77597;SDS011;66756;42.774;23.354;2023-05-31T08:18:24;7.50;;;5.28;;
77597;SDS011;66756;42.774;23.354;2023-05-31T08:20:50;8.95;;;4.68;;
77597;SDS011;66756;42.774;23.354;2023-05-31T08:23:16;6.20;;;4.25;;
77597;SDS011;66756;42.774;23.354;2023-05-31T08:25:43;7.38;;;4.18;;
77597;SDS011;66756;42.774;23.354;2023-05-31T08:28:09;6.72;;;5.13;;
77597;SDS011;66756;42.774;23.354;2023-05-31T08:30:35;8.15;;;5.47;;
77597;SDS011;66756;42.774;23.354;2023-05-31T08:33:01;6.85;;;4.13;;
77597;SDS011;66756;42.774;23.354;2023-05-31T08:35:27;6.07;;;4.22;;
77597;SDS011;66756;42.774;23.354;2023-05-31T08:37:53;7.15;;;4.30;;
77597;SDS011;66756;42.774;23.354;2023-05-31T08:40:20;5.05;;;4.13;;
77597;SDS011;66756;42.774;23.354;2023-05-31T08:45:12;6.93;;;4.40;;
77597;SDS011;66756;42.774;23.354;2023-05-31T08:47:39;7.15;;;4.38;;
77597;SDS011;66756;42.774;23.354;2023-05-31T08:50:08;4.97;;;3.72;;
77597;SDS011;66756;42.774;23.354;2023-05-31T08:52:35;5.13;;;3.63;;
77597;SDS011;66756;42.774;23.354;2023-05-31T08:55:01;5.53;;;4.30;;
77597;SDS011;66756;42.774;23.354;2023-05-31T08:57:29;5.38;;;4.28;;
77597;SDS011;66756;42.774;23.354;2023-05-31T08:59:58;5.03;;;3.70;;
77597;SDS011;66756;42.774;23.354;2023-05-31T09:02:26;6.10;;;4.15;;
77597;SDS011;66756;42.774;23.354;2023-05-31T09:04:53;5.05;;;3.80;;
77597;SDS011;66756;42.774;23.354;2023-05-31T09:07:21;4.72;;;3.92;;
77597;SDS011;66756;42.774;23.354;2023-05-31T09:09:47;5.72;;;4.57;;
77597;SDS011;66756;42.774;23.354;2023-05-31T09:12:13;4.85;;;3.78;;
77597;SDS011;66756;42.774;23.354;2023-05-31T09:14:40;6.35;;;4.18;;
77597;SDS011;66756;42.774;23.354;2023-05-31T09:17:06;5.15;;;3.97;;
77597;SDS011;66756;42.774;23.354;2023-05-31T09:19:32;7.10;;;3.83;;
77597;SDS011;66756;42.774;23.354;2023-05-31T09:21:58;5.90;;;4.28;;
77597;SDS011;66756;42.774;23.354;2023-05-31T09:24:24;6.57;;;3.20;;
77597;SDS011;66756;42.774;23.354;2023-05-31T09:26:52;5.13;;;3.85;;
77597;SDS011;66756;42.774;23.354;2023-05-31T09:29:20;5.32;;;3.85;;
77597;SDS011;66756;42.774;23.354;2023-05-31T09:31:47;4.25;;;2.67;;
77597;SDS011;66756;42.774;23.354;2023-05-31T09:34:22;6.43;;;3.33;;
77597;SDS011;66756;42.774;23.354;2023-05-31T09:36:50;4.72;;;3.17;;
77597;SDS011;66756;42.774;23.354;2023-05-31T09:39:17;4.15;;;3.03;;
77597;SDS011;66756;42.774;23.354;2023-05-31T09:41:45;6.13;;;3.50;;
77597;SDS011;66756;42.774;23.354;2023-05-31T09:44:15;4.63;;;3.17;;
77597;SDS011;66756;42.774;23.354;2023-05-31T09:46:41;4.38;;;2.92;;
77597;SDS011;66756;42.774;23.354;2023-05-31T09:49:07;5.63;;;3.30;;
77597;SDS011;66756;42.774;23.354;2023-05-31T09:51:34;3.75;;;2.63;;
77597;SDS011;66756;42.774;23.354;2023-05-31T09:54:13;3.50;;;2.72;;
77597;SDS011;66756;42.774;23.354;2023-05-31T09:56:40;5.93;;;3.08;;
77597;SDS011;66756;42.774;23.354;2023-05-31T09:59:06;4.38;;;3.65;;
77597;SDS011;66756;42.774;23.354;2023-05-31T10:01:33;4.35;;;2.80;;
77597;SDS011;66756;42.774;23.354;2023-05-31T10:04:03;3.97;;;2.25;;
77597;SDS011;66756;42.774;23.354;2023-05-31T10:06:31;3.10;;;1.98;;
77597;SDS011;66756;42.774;23.354;2023-05-31T10:09:01;3.05;;;2.13;;
77597;SDS011;66756;42.774;23.354;2023-05-31T10:11:30;5.15;;;2.03;;
77597;SDS011;66756;42.774;23.354;2023-05-31T10:13:59;8.35;;;2.50;;
77597;SDS011;66756;42.774;23.354;2023-05-31T10:16:28;3.67;;;2.28;;
77597;SDS011;66756;42.774;23.354;2023-05-31T10:18:54;3.65;;;1.73;;
77597;SDS011;66756;42.774;23.354;2023-05-31T10:21:24;2.50;;;1.60;;
77597;SDS011;66756;42.774;23.354;2023-05-31T10:23:55;2.65;;;1.70;;
77597;SDS011;66756;42.774;23.354;2023-05-31T10:26:22;1.83;;;0.98;;
77597;SDS011;66756;42.774;23.354;2023-05-31T10:28:55;3.75;;;1.33;;
77597;SDS011;66756;42.774;23.354;2023-05-31T10:31:36;3.35;;;1.52;;
77597;SDS011;66756;42.774;23.354;2023-05-31T10:34:19;2.58;;;1.90;;
77597;SDS011;66756;42.774;23.354;2023-05-31T10:36:45;2.40;;;1.83;;
77597;SDS011;66756;42.774;23.354;2023-05-31T10:39:17;3.50;;;1.63;;
77597;SDS011;66756;42.774;23.354;2023-05-31T10:41:45;4.00;;;2.03;;
77597;SDS011;66756;42.774;23.354;2023-05-31T10:44:19;6.88;;;2.10;;
77597;SDS011;66756;42.774;23.354;2023-05-31T10:46:49;4.50;;;2.45;;
77597;SDS011;66756;42.774;23.354;2023-05-31T10:49:16;3.58;;;2.42;;
77597;SDS011;66756;42.774;23.354;2023-05-31T10:51:44;4.97;;;3.22;;
77597;SDS011;66756;42.774;23.354;2023-05-31T10:54:13;5.05;;;2.47;;
77597;SDS011;66756;42.774;23.354;2023-05-31T10:56:51;3.90;;;2.85;;
77597;SDS011;66756;42.774;23.354;2023-05-31T10:59:17;4.35;;;2.38;;
77597;SDS011;66756;42.774;23.354;2023-05-31T11:01:44;4.28;;;2.45;;
77597;SDS011;66756;42.774;23.354;2023-05-31T11:04:23;2.85;;;1.48;;
77597;SDS011;66756;42.774;23.354;2023-05-31T11:07:09;4.05;;;2.53;;
77597;SDS011;66756;42.774;23.354;2023-05-31T11:09:40;2.53;;;1.77;;
77597;SDS011;66756;42.774;23.354;2023-05-31T11:12:11;2.90;;;1.70;;
77597;SDS011;66756;42.774;23.354;2023-05-31T11:14:37;3.15;;;1.95;;
77597;SDS011;66756;42.774;23.354;2023-05-31T11:19:34;4.53;;;2.58;;
77597;SDS011;66756;42.774;23.354;2023-05-31T11:22:10;4.22;;;2.55;;
77597;SDS011;66756;42.774;23.354;2023-05-31T11:24:37;4.57;;;3.00;;
77597;SDS011;66756;42.774;23.354;2023-05-31T11:27:04;4.55;;;1.95;;
77597;SDS011;66756;42.774;23.354;2023-05-31T11:32:11;4.20;;;2.25;;
77597;SDS011;66756;42.774;23.354;2023-05-31T11:37:28;3.88;;;2.22;;
77597;SDS011;66756;42.774;23.354;2023-05-31T11:39:55;4.75;;;2.78;;
77597;SDS011;66756;42.774;23.354;2023-05-31T11:42:21;4.97;;;2.67;;
77597;SDS011;66756;42.774;23.354;2023-05-31T11:44:50;3.50;;;1.88;;
77597;SDS011;66756;42.774;23.354;2023-05-31T11:47:18;4.00;;;2.33;;
77597;SDS011;66756;42.774;23.354;2023-05-31T11:49:44;4.65;;;2.60;;
77597;SDS011;66756;42.774;23.354;2023-05-31T11:52:14;6.40;;;2.15;;
77597;SDS011;66756;42.774;23.354;2023-05-31T11:54:41;6.47;;;2.25;;
77597;SDS011;66756;42.774;23.354;2023-05-31T11:57:08;4.95;;;2.60;;
77597;SDS011;66756;42.774;23.354;2023-05-31T11:59:35;5.07;;;2.78;;
77597;SDS011;66756;42.774;23.354;2023-05-31T12:02:02;5.13;;;2.58;;
77597;SDS011;66756;42.774;23.354;2023-05-31T12:06:57;3.78;;;2.00;;
77597;SDS011;66756;42.774;23.354;2023-05-31T12:09:23;4.40;;;2.10;;
77597;SDS011;66756;42.774;23.354;2023-05-31T12:11:50;3.53;;;1.85;;
77597;SDS011;66756;42.774;23.354;2023-05-31T12:14:16;5.10;;;1.70;;
77597;SDS011;66756;42.774;23.354;2023-05-31T12:16:42;3.38;;;1.63;;
77597;SDS011;66756;42.774;23.354;2023-05-31T12:19:12;4.65;;;2.13;;
77597;SDS011;66756;42.774;23.354;2023-05-31T12:21:38;4.63;;;3.17;;
77597;SDS011;66756;42.774;23.354;2023-05-31T12:24:11;4.72;;;2.67;;
77597;SDS011;66756;42.774;23.354;2023-05-31T12:26:37;4.70;;;2.17;;
77597;SDS011;66756;42.774;23.354;2023-05-31T12:29:04;4.78;;;2.33;;
77597;SDS011;66756;42.774;23.354;2023-05-31T12:31:30;5.82;;;3.33;;
77597;SDS011;66756;42.774;23.354;2023-05-31T12:34:06;6.13;;;2.95;;
77597;SDS011;66756;42.774;23.354;2023-05-31T12:36:45;5.25;;;2.90;;
77597;SDS011;66756;42.774;23.354;2023-05-31T12:39:17;5.22;;;3.42;;
77597;SDS011;66756;42.774;23.354;2023-05-31T12:41:44;5.00;;;2.97;;
77597;SDS011;66756;42.774;23.354;2023-05-31T12:44:13;4.40;;;2.13;;
77597;SDS011;66756;42.774;23.354;2023-05-31T12:46:42;9.02;;;2.97;;
77597;SDS011;66756;42.774;23.354;2023-05-31T12:51:47;3.65;;;2.08;;
77597;SDS011;66756;42.774;23.354;2023-05-31T12:54:13;4.07;;;2.22;;
77597;SDS011;66756;42.774;23.354;2023-05-31T12:56:42;4.72;;;2.55;;
77597;SDS011;66756;42.774;23.354;2023-05-31T12:59:08;4.15;;;2.40;;
77597;SDS011;66756;42.774;23.354;2023-05-31T13:01:35;3.78;;;2.05;;
77597;SDS011;66756;42.774;23.354;2023-05-31T13:04:03;4.13;;;1.67;;
77597;SDS011;66756;42.774;23.354;2023-05-31T13:06:29;3.95;;;1.90;;
77597;SDS011;66756;42.774;23.354;2023-05-31T13:08:55;4.05;;;1.60;;
77597;SDS011;66756;42.774;23.354;2023-05-31T13:11:22;3.80;;;1.45;;
77597;SDS011;66756;42.774;23.354;2023-05-31T13:13:48;3.03;;;1.38;;
77597;SDS011;66756;42.774;23.354;2023-05-31T13:16:14;2.78;;;1.92;;
77597;SDS011;66756;42.774;23.354;2023-05-31T13:18:40;3.78;;;1.92;;
77597;SDS011;66756;42.774;23.354;2023-05-31T13:21:06;2.95;;;1.73;;
77597;SDS011;66756;42.774;23.354;2023-05-31T13:23:32;3.30;;;1.50;;
77597;SDS011;66756;42.774;23.354;2023-05-31T13:25:58;2.28;;;1.40;;
77597;SDS011;66756;42.774;23.354;2023-05-31T13:28:24;2.28;;;1.45;;
77597;SDS011;66756;42.774;23.354;2023-05-31T13:30:50;2.75;;;1.23;;
77597;SDS011;66756;42.774;23.354;2023-05-31T13:33:16;2.28;;;1.48;;
77597;SDS011;66756;42.774;23.354;2023-05-31T13:35:42;2.40;;;1.58;;
77597;SDS011;66756;42.774;23.354;2023-05-31T13:38:08;4.07;;;1.88;;
77597;SDS011;66756;42.774;23.354;2023-05-31T13:40:34;2.67;;;1.40;;
77597;SDS011;66756;42.774;23.354;2023-05-31T13:43:02;3.17;;;1.23;;
77597;SDS011;66756;42.774;23.354;2023-05-31T13:45:29;3.90;;;1.90;;
77597;SDS011;66756;42.774;23.354;2023-05-31T13:47:55;3.30;;;1.60;;
77597;SDS011;66756;42.774;23.354;2023-05-31T13:50:22;4.03;;;1.90;;
77597;SDS011;66756;42.774;23.354;2023-05-31T13:52:48;3.72;;;2.40;;
77597;SDS011;66756;42.774;23.354;2023-05-31T13:55:14;4.28;;;1.90;;
77597;SDS011;66756;42.774;23.354;2023-05-31T14:00:44;4.25;;;2.53;;
77597;SDS011;66756;42.774;23.354;2023-05-31T14:03:10;3.95;;;2.50;;
77597;SDS011;66756;42.774;23.354;2023-05-31T14:05:36;5.25;;;2.83;;
77597;SDS011;66756;42.774;23.354;2023-05-31T14:08:02;4.15;;;2.17;;
77597;SDS011;66756;42.774;23.354;2023-05-31T14:10:28;5.20;;;2.00;;
77597;SDS011;66756;42.774;23.354;2023-05-31T14:12:54;4.47;;;2.35;;
77597;SDS011;66756;42.774;23.354;2023-05-31T14:15:20;5.18;;;2.38;;
77597;SDS011;66756;42.774;23.354;2023-05-31T14:17:46;5.07;;;2.35;;
77597;SDS011;66756;42.774;23.354;2023-05-31T14:20:12;6.10;;;3.33;;
77597;SDS011;66756;42.774;23.354;2023-05-31T14:22:38;4.95;;;3.28;;
77597;SDS011;66756;42.774;23.354;2023-05-31T14:25:05;6.13;;;3.10;;
77597;SDS011;66756;42.774;23.354;2023-05-31T14:27:31;4.55;;;2.60;;
77597;SDS011;66756;42.774;23.354;2023-05-31T14:29:57;9.48;;;3.47;;
77597;SDS011;66756;42.774;23.354;2023-05-31T14:32:23;4.88;;;3.05;;
77597;SDS011;66756;42.774;23.354;2023-05-31T14:34:49;6.32;;;2.72;;
77597;SDS011;66756;42.774;23.354;2023-05-31T14:37:15;6.15;;;3.67;;
77597;SDS011;66756;42.774;23.354;2023-05-31T14:39:41;5.18;;;2.80;;
77597;SDS011;66756;42.774;23.354;2023-05-31T14:42:08;4.20;;;2.90;;
77597;SDS011;66756;42.774;23.354;2023-05-31T14:44:34;6.93;;;2.88;;
77597;SDS011;66756;42.774;23.354;2023-05-31T14:47:01;5.43;;;3.08;;
77597;SDS011;66756;42.774;23.354;2023-05-31T14:49:27;6.65;;;2.67;;
77597;SDS011;66756;42.774;23.354;2023-05-31T14:51:53;5.93;;;3.53;;
77597;SDS011;66756;42.774;23.354;2023-05-31T14:54:22;6.35;;;3.28;;